sensor_id;sensor_type;location;lat;lon;timestamp;P1;durP1;ratioP1;P2;durP2;ratioP2
18780;SDS011;9519;51.890;8.970;2023-07-02T00:04:50;14.23;;;9.68;;
18780;SDS011;9519;51.890;8.970;2023-07-02T00:09:52;12.07;;;9.82;;
18780;SDS011;9519;51.890;8.970;2023-07-02T00:14:54;13.07;;;9.77;;
18780;SDS011;9519;51.890;8.970;2023-07-02T00:19:58;12.25;;;9.30;;
18780;SDS011;9519;51.890;8.970;2023-07-02T00:25:03;9.30;;;8.30;;
18780;SDS011;9519;51.890;8.970;2023-07-02T00:30:07;10.65;;;9.60;;
18780;SDS011;9519;51.890;8.970;2023-07-02T00:35:11;11.93;;;9.43;;
18780;SDS011;9519;51.890;8.970;2023-07-02T00:40:14;11.35;;;9.52;;
18780;SDS011;9519;51.890;8.970;2023-07-02T00:45:16;11.35;;;10.15;;
18780;SDS011;9519;51.890;8.970;2023-07-02T00:50:19;12.65;;;11.05;;
18780;SDS011;9519;51.890;8.970;2023-07-02T00:55:23;12.85;;;11.30;;
18780;SDS011;9519;51.890;8.970;2023-07-02T01:00:25;14.30;;;12.85;;
18780;SDS011;9519;51.890;8.970;2023-07-02T01:05:30;17.13;;;15.43;;
18780;SDS011;9519;51.890;8.970;2023-07-02T01:10:35;21.83;;;19.65;;
18780;SDS011;9519;51.890;8.970;2023-07-02T01:15:37;23.70;;;21.40;;
18780;SDS011;9519;51.890;8.970;2023-07-02T01:20:42;22.60;;;20.40;;
18780;SDS011;9519;51.890;8.970;2023-07-02T01:25:45;24.98;;;22.60;;
18780;SDS011;9519;51.890;8.970;2023-07-02T01:30:47;22.65;;;20.48;;
18780;SDS011;9519;51.890;8.970;2023-07-02T01:35:51;24.58;;;22.17;;
18780;SDS011;9519;51.890;8.970;2023-07-02T01:40:55;27.48;;;24.67;;
18780;SDS011;9519;51.890;8.970;2023-07-02T01:45:57;33.05;;;29.67;;
18780;SDS011;9519;51.890;8.970;2023-07-02T01:51:03;25.52;;;22.92;;
18780;SDS011;9519;51.890;8.970;2023-07-02T01:56:05;26.95;;;24.35;;
18780;SDS011;9519;51.890;8.970;2023-07-02T02:01:07;25.45;;;22.77;;
18780;SDS011;9519;51.890;8.970;2023-07-02T02:06:10;26.20;;;23.70;;
18780;SDS011;9519;51.890;8.970;2023-07-02T02:11:13;27.90;;;25.05;;
18780;SDS011;9519;51.890;8.970;2023-07-02T02:16:16;25.83;;;23.42;;
18780;SDS011;9519;51.890;8.970;2023-07-02T02:21:19;22.77;;;20.52;;
18780;SDS011;9519;51.890;8.970;2023-07-02T02:26:22;22.65;;;20.35;;
18780;SDS011;9519;51.890;8.970;2023-07-02T02:31:26;23.55;;;21.30;;
18780;SDS011;9519;51.890;8.970;2023-07-02T02:36:30;27.65;;;24.80;;
18780;SDS011;9519;51.890;8.970;2023-07-02T02:41:32;26.42;;;23.92;;
18780;SDS011;9519;51.890;8.970;2023-07-02T02:46:34;24.38;;;21.88;;
18780;SDS011;9519;51.890;8.970;2023-07-02T02:51:39;27.88;;;24.88;;
18780;SDS011;9519;51.890;8.970;2023-07-02T02:56:41;26.60;;;22.00;;
18780;SDS011;9519;51.890;8.970;2023-07-02T03:01:44;32.28;;;27.13;;
18780;SDS011;9519;51.890;8.970;2023-07-02T03:06:48;28.88;;;25.85;;
18780;SDS011;9519;51.890;8.970;2023-07-02T03:11:50;28.48;;;24.42;;
18780;SDS011;9519;51.890;8.970;2023-07-02T03:16:52;30.77;;;27.52;;
18780;SDS011;9519;51.890;8.970;2023-07-02T03:21:58;34.13;;;30.77;;
18780;SDS011;9519;51.890;8.970;2023-07-02T03:27:00;32.97;;;29.42;;
18780;SDS011;9519;51.890;8.970;2023-07-02T03:32:03;28.75;;;25.15;;
18780;SDS011;9519;51.890;8.970;2023-07-02T03:37:08;36.72;;;28.48;;
18780;SDS011;9519;51.890;8.970;2023-07-02T03:42:10;27.65;;;23.75;;
18780;SDS011;9519;51.890;8.970;2023-07-02T03:47:12;21.83;;;19.38;;
18780;SDS011;9519;51.890;8.970;2023-07-02T03:52:17;28.00;;;23.95;;
18780;SDS011;9519;51.890;8.970;2023-07-02T03:57:20;27.58;;;21.23;;
18780;SDS011;9519;51.890;8.970;2023-07-02T04:02:22;25.25;;;20.08;;
18780;SDS011;9519;51.890;8.970;2023-07-02T04:07:26;31.48;;;22.60;;
18780;SDS011;9519;51.890;8.970;2023-07-02T04:12:28;28.70;;;21.48;;
18780;SDS011;9519;51.890;8.970;2023-07-02T04:17:31;25.98;;;20.33;;
18780;SDS011;9519;51.890;8.970;2023-07-02T04:22:35;25.30;;;19.88;;
18780;SDS011;9519;51.890;8.970;2023-07-02T04:27:37;26.77;;;19.67;;
18780;SDS011;9519;51.890;8.970;2023-07-02T04:32:40;23.85;;;18.85;;
18780;SDS011;9519;51.890;8.970;2023-07-02T04:37:43;26.45;;;20.40;;
18780;SDS011;9519;51.890;8.970;2023-07-02T04:42:46;26.55;;;20.02;;
18780;SDS011;9519;51.890;8.970;2023-07-02T04:47:48;24.65;;;18.40;;
18780;SDS011;9519;51.890;8.970;2023-07-02T04:52:52;23.90;;;16.42;;
18780;SDS011;9519;51.890;8.970;2023-07-02T04:57:55;25.58;;;15.73;;
18780;SDS011;9519;51.890;8.970;2023-07-02T05:02:57;29.08;;;18.63;;
18780;SDS011;9519;51.890;8.970;2023-07-02T05:08:01;21.77;;;13.93;;
18780;SDS011;9519;51.890;8.970;2023-07-02T05:13:04;19.45;;;12.65;;
18780;SDS011;9519;51.890;8.970;2023-07-02T05:18:06;25.75;;;13.23;;
18780;SDS011;9519;51.890;8.970;2023-07-02T05:23:10;19.52;;;12.55;;
18780;SDS011;9519;51.890;8.970;2023-07-02T05:28:12;17.05;;;10.23;;
18780;SDS011;9519;51.890;8.970;2023-07-02T05:33:14;25.20;;;9.97;;
18780;SDS011;9519;51.890;8.970;2023-07-02T05:38:20;19.43;;;10.03;;
18780;SDS011;9519;51.890;8.970;2023-07-02T05:43:24;20.80;;;10.63;;
18780;SDS011;9519;51.890;8.970;2023-07-02T05:48:26;26.17;;;10.90;;
18780;SDS011;9519;51.890;8.970;2023-07-02T05:53:30;22.08;;;10.57;;
18780;SDS011;9519;51.890;8.970;2023-07-02T05:58:32;26.92;;;11.68;;
18780;SDS011;9519;51.890;8.970;2023-07-02T06:03:35;22.15;;;11.85;;
18780;SDS011;9519;51.890;8.970;2023-07-02T06:08:39;23.57;;;11.50;;
18780;SDS011;9519;51.890;8.970;2023-07-02T06:13:41;24.57;;;10.93;;
18780;SDS011;9519;51.890;8.970;2023-07-02T06:18:43;20.97;;;9.87;;
18780;SDS011;9519;51.890;8.970;2023-07-02T06:23:46;26.20;;;10.80;;
18780;SDS011;9519;51.890;8.970;2023-07-02T06:28:48;21.38;;;10.40;;
18780;SDS011;9519;51.890;8.970;2023-07-02T06:33:51;24.42;;;10.98;;
18780;SDS011;9519;51.890;8.970;2023-07-02T06:38:54;26.80;;;11.43;;
18780;SDS011;9519;51.890;8.970;2023-07-02T06:43:56;21.08;;;10.20;;
18780;SDS011;9519;51.890;8.970;2023-07-02T06:48:58;19.83;;;10.32;;
18780;SDS011;9519;51.890;8.970;2023-07-02T06:54:02;20.83;;;10.23;;
18780;SDS011;9519;51.890;8.970;2023-07-02T06:59:04;18.05;;;9.05;;
18780;SDS011;9519;51.890;8.970;2023-07-02T07:04:06;21.27;;;8.90;;
18780;SDS011;9519;51.890;8.970;2023-07-02T07:09:10;19.73;;;9.35;;
18780;SDS011;9519;51.890;8.970;2023-07-02T07:14:12;17.77;;;8.80;;
18780;SDS011;9519;51.890;8.970;2023-07-02T07:19:14;18.33;;;8.32;;
18780;SDS011;9519;51.890;8.970;2023-07-02T07:24:19;21.25;;;8.68;;
18780;SDS011;9519;51.890;8.970;2023-07-02T07:29:21;21.15;;;8.18;;
18780;SDS011;9519;51.890;8.970;2023-07-02T07:34:24;21.83;;;8.68;;
18780;SDS011;9519;51.890;8.970;2023-07-02T07:39:29;21.95;;;9.35;;
18780;SDS011;9519;51.890;8.970;2023-07-02T07:44:31;24.05;;;8.27;;
18780;SDS011;9519;51.890;8.970;2023-07-02T07:49:33;20.55;;;8.20;;
18780;SDS011;9519;51.890;8.970;2023-07-02T07:54:36;19.45;;;7.85;;
18780;SDS011;9519;51.890;8.970;2023-07-02T07:59:38;24.52;;;8.73;;
18780;SDS011;9519;51.890;8.970;2023-07-02T08:04:41;20.73;;;8.80;;
18780;SDS011;9519;51.890;8.970;2023-07-02T08:09:47;25.38;;;8.98;;
18780;SDS011;9519;51.890;8.970;2023-07-02T08:14:50;18.42;;;8.25;;
18780;SDS011;9519;51.890;8.970;2023-07-02T08:19:52;21.13;;;8.65;;
18780;SDS011;9519;51.890;8.970;2023-07-02T08:24:55;17.63;;;8.50;;
18780;SDS011;9519;51.890;8.970;2023-07-02T08:29:57;20.98;;;9.25;;
18780;SDS011;9519;51.890;8.970;2023-07-02T08:34:59;22.02;;;9.05;;
18780;SDS011;9519;51.890;8.970;2023-07-02T08:40:04;17.95;;;9.27;;
18780;SDS011;9519;51.890;8.970;2023-07-02T08:45:16;23.90;;;9.82;;
18780;SDS011;9519;51.890;8.970;2023-07-02T08:50:18;21.42;;;9.60;;
18780;SDS011;9519;51.890;8.970;2023-07-02T08:55:22;23.95;;;10.07;;
18780;SDS011;9519;51.890;8.970;2023-07-02T09:00:24;23.30;;;10.23;;
18780;SDS011;9519;51.890;8.970;2023-07-02T09:05:26;19.83;;;8.52;;
18780;SDS011;9519;51.890;8.970;2023-07-02T09:10:31;27.63;;;9.80;;
18780;SDS011;9519;51.890;8.970;2023-07-02T09:15:37;23.85;;;10.35;;
18780;SDS011;9519;51.890;8.970;2023-07-02T09:20:40;25.08;;;10.48;;
18780;SDS011;9519;51.890;8.970;2023-07-02T09:25:44;21.42;;;9.25;;
18780;SDS011;9519;51.890;8.970;2023-07-02T09:30:50;21.52;;;8.68;;
18780;SDS011;9519;51.890;8.970;2023-07-02T09:35:54;21.23;;;9.15;;
18780;SDS011;9519;51.890;8.970;2023-07-02T09:40:58;18.85;;;8.88;;
18780;SDS011;9519;51.890;8.970;2023-07-02T09:46:01;20.88;;;9.18;;
18780;SDS011;9519;51.890;8.970;2023-07-02T09:51:04;20.52;;;8.30;;
18780;SDS011;9519;51.890;8.970;2023-07-02T09:56:08;16.70;;;7.38;;
18780;SDS011;9519;51.890;8.970;2023-07-02T10:01:11;19.33;;;8.23;;
18780;SDS011;9519;51.890;8.970;2023-07-02T10:06:13;14.27;;;7.90;;
18780;SDS011;9519;51.890;8.970;2023-07-02T10:11:17;18.55;;;7.38;;
18780;SDS011;9519;51.890;8.970;2023-07-02T10:16:19;22.25;;;8.27;;
18780;SDS011;9519;51.890;8.970;2023-07-02T10:21:21;20.17;;;8.25;;
18780;SDS011;9519;51.890;8.970;2023-07-02T10:26:26;21.10;;;8.25;;
18780;SDS011;9519;51.890;8.970;2023-07-02T10:31:28;19.40;;;8.65;;
18780;SDS011;9519;51.890;8.970;2023-07-02T10:36:30;17.45;;;8.23;;
18780;SDS011;9519;51.890;8.970;2023-07-02T10:41:34;17.42;;;7.13;;
18780;SDS011;9519;51.890;8.970;2023-07-02T10:46:42;21.17;;;8.00;;
18780;SDS011;9519;51.890;8.970;2023-07-02T10:51:56;18.48;;;8.05;;
18780;SDS011;9519;51.890;8.970;2023-07-02T10:57:00;14.65;;;7.28;;
18780;SDS011;9519;51.890;8.970;2023-07-02T11:02:02;14.02;;;7.05;;
18780;SDS011;9519;51.890;8.970;2023-07-02T11:07:06;17.33;;;7.70;;
18780;SDS011;9519;51.890;8.970;2023-07-02T11:12:10;17.08;;;8.57;;
18780;SDS011;9519;51.890;8.970;2023-07-02T11:17:12;21.48;;;7.63;;
18780;SDS011;9519;51.890;8.970;2023-07-02T11:22:14;22.25;;;7.85;;
18780;SDS011;9519;51.890;8.970;2023-07-02T11:27:21;17.90;;;8.05;;
18780;SDS011;9519;51.890;8.970;2023-07-02T11:32:23;19.42;;;6.93;;
18780;SDS011;9519;51.890;8.970;2023-07-02T11:37:26;18.45;;;7.82;;
18780;SDS011;9519;51.890;8.970;2023-07-02T11:42:30;16.45;;;7.10;;
18780;SDS011;9519;51.890;8.970;2023-07-02T11:47:33;14.73;;;7.38;;
18780;SDS011;9519;51.890;8.970;2023-07-02T11:52:35;17.27;;;7.00;;
18780;SDS011;9519;51.890;8.970;2023-07-02T11:57:38;16.67;;;7.55;;
18780;SDS011;9519;51.890;8.970;2023-07-02T12:02:41;14.80;;;6.80;;
18780;SDS011;9519;51.890;8.970;2023-07-02T12:07:44;17.13;;;6.78;;
18780;SDS011;9519;51.890;8.970;2023-07-02T12:12:48;17.23;;;7.07;;
18780;SDS011;9519;51.890;8.970;2023-07-02T12:17:50;17.73;;;6.35;;
18780;SDS011;9519;51.890;8.970;2023-07-02T12:22:52;20.30;;;7.25;;
18780;SDS011;9519;51.890;8.970;2023-07-02T12:27:55;17.90;;;7.15;;
18780;SDS011;9519;51.890;8.970;2023-07-02T12:32:58;15.18;;;7.13;;
18780;SDS011;9519;51.890;8.970;2023-07-02T12:38:00;16.40;;;7.65;;
18780;SDS011;9519;51.890;8.970;2023-07-02T12:43:05;23.90;;;7.85;;
18780;SDS011;9519;51.890;8.970;2023-07-02T12:48:07;17.17;;;7.57;;
18780;SDS011;9519;51.890;8.970;2023-07-02T12:53:10;16.67;;;7.97;;
18780;SDS011;9519;51.890;8.970;2023-07-02T12:58:13;18.08;;;8.82;;
18780;SDS011;9519;51.890;8.970;2023-07-02T13:03:16;16.17;;;7.78;;
18780;SDS011;9519;51.890;8.970;2023-07-02T13:08:19;17.83;;;8.23;;
18780;SDS011;9519;51.890;8.970;2023-07-02T13:13:23;17.52;;;8.15;;
18780;SDS011;9519;51.890;8.970;2023-07-02T13:18:25;16.05;;;7.60;;
18780;SDS011;9519;51.890;8.970;2023-07-02T13:23:27;18.08;;;8.13;;
18780;SDS011;9519;51.890;8.970;2023-07-02T13:28:31;17.20;;;7.05;;
18780;SDS011;9519;51.890;8.970;2023-07-02T13:33:33;15.18;;;6.85;;
18780;SDS011;9519;51.890;8.970;2023-07-02T13:38:35;14.10;;;6.50;;
18780;SDS011;9519;51.890;8.970;2023-07-02T13:43:39;14.15;;;6.28;;
18780;SDS011;9519;51.890;8.970;2023-07-02T13:48:42;13.25;;;6.57;;
18780;SDS011;9519;51.890;8.970;2023-07-02T13:53:44;16.40;;;6.65;;
18780;SDS011;9519;51.890;8.970;2023-07-02T13:58:58;17.08;;;6.65;;
18780;SDS011;9519;51.890;8.970;2023-07-02T14:04:02;14.10;;;6.43;;
18780;SDS011;9519;51.890;8.970;2023-07-02T14:09:05;12.98;;;6.22;;
18780;SDS011;9519;51.890;8.970;2023-07-02T14:14:11;11.73;;;5.93;;
18780;SDS011;9519;51.890;8.970;2023-07-02T14:19:13;16.58;;;6.30;;
18780;SDS011;9519;51.890;8.970;2023-07-02T14:24:17;12.10;;;5.72;;
18780;SDS011;9519;51.890;8.970;2023-07-02T14:29:20;16.40;;;6.10;;
18780;SDS011;9519;51.890;8.970;2023-07-02T14:34:22;11.30;;;5.80;;
18780;SDS011;9519;51.890;8.970;2023-07-02T14:39:25;11.93;;;5.63;;
18780;SDS011;9519;51.890;8.970;2023-07-02T14:44:29;13.15;;;5.63;;
18780;SDS011;9519;51.890;8.970;2023-07-02T14:49:31;10.25;;;5.10;;
18780;SDS011;9519;51.890;8.970;2023-07-02T14:54:33;13.50;;;5.47;;
18780;SDS011;9519;51.890;8.970;2023-07-02T14:59:37;13.02;;;5.28;;
18780;SDS011;9519;51.890;8.970;2023-07-02T15:04:39;10.82;;;5.45;;
18780;SDS011;9519;51.890;8.970;2023-07-02T15:09:41;14.38;;;5.60;;
18780;SDS011;9519;51.890;8.970;2023-07-02T15:14:45;13.02;;;5.15;;
18780;SDS011;9519;51.890;8.970;2023-07-02T15:19:47;14.48;;;5.18;;
18780;SDS011;9519;51.890;8.970;2023-07-02T15:24:49;13.27;;;5.88;;
18780;SDS011;9519;51.890;8.970;2023-07-02T15:29:53;13.77;;;5.20;;
18780;SDS011;9519;51.890;8.970;2023-07-02T15:34:57;14.60;;;5.75;;
18780;SDS011;9519;51.890;8.970;2023-07-02T15:39:59;12.63;;;5.90;;
18780;SDS011;9519;51.890;8.970;2023-07-02T15:45:03;14.75;;;5.18;;
18780;SDS011;9519;51.890;8.970;2023-07-02T15:50:08;13.65;;;5.97;;
18780;SDS011;9519;51.890;8.970;2023-07-02T15:55:11;16.33;;;6.43;;
18780;SDS011;9519;51.890;8.970;2023-07-02T16:00:15;15.43;;;6.18;;
18780;SDS011;9519;51.890;8.970;2023-07-02T16:05:18;14.60;;;6.40;;
18780;SDS011;9519;51.890;8.970;2023-07-02T16:10:20;11.80;;;5.80;;
18780;SDS011;9519;51.890;8.970;2023-07-02T16:15:25;12.85;;;6.10;;
18780;SDS011;9519;51.890;8.970;2023-07-02T16:20:28;16.92;;;6.20;;
18780;SDS011;9519;51.890;8.970;2023-07-02T16:25:31;12.20;;;5.95;;
18780;SDS011;9519;51.890;8.970;2023-07-02T16:30:34;16.17;;;5.90;;
18780;SDS011;9519;51.890;8.970;2023-07-02T16:35:37;12.18;;;5.35;;
18780;SDS011;9519;51.890;8.970;2023-07-02T16:40:39;13.88;;;5.72;;
18780;SDS011;9519;51.890;8.970;2023-07-02T16:45:43;13.90;;;6.13;;
18780;SDS011;9519;51.890;8.970;2023-07-02T16:50:56;12.65;;;5.10;;
18780;SDS011;9519;51.890;8.970;2023-07-02T16:55:59;12.00;;;6.15;;
18780;SDS011;9519;51.890;8.970;2023-07-02T17:01:05;11.25;;;5.75;;
18780;SDS011;9519;51.890;8.970;2023-07-02T17:06:11;15.57;;;6.85;;
18780;SDS011;9519;51.890;8.970;2023-07-02T17:11:13;16.23;;;7.05;;
18780;SDS011;9519;51.890;8.970;2023-07-02T17:16:17;16.05;;;6.57;;
18780;SDS011;9519;51.890;8.970;2023-07-02T17:21:19;12.70;;;6.43;;
18780;SDS011;9519;51.890;8.970;2023-07-02T17:26:24;18.48;;;6.95;;
18780;SDS011;9519;51.890;8.970;2023-07-02T17:31:28;16.23;;;6.57;;
18780;SDS011;9519;51.890;8.970;2023-07-02T17:36:30;15.88;;;6.50;;
18780;SDS011;9519;51.890;8.970;2023-07-02T17:41:34;15.35;;;6.63;;
18780;SDS011;9519;51.890;8.970;2023-07-02T17:46:37;15.40;;;6.90;;
18780;SDS011;9519;51.890;8.970;2023-07-02T17:51:40;16.75;;;6.38;;
18780;SDS011;9519;51.890;8.970;2023-07-02T17:56:44;14.60;;;5.82;;
18780;SDS011;9519;51.890;8.970;2023-07-02T18:01:49;14.75;;;6.68;;
18780;SDS011;9519;51.890;8.970;2023-07-02T18:06:52;16.52;;;6.72;;
18780;SDS011;9519;51.890;8.970;2023-07-02T18:12:02;16.92;;;7.00;;
18780;SDS011;9519;51.890;8.970;2023-07-02T18:17:06;15.00;;;6.53;;
18780;SDS011;9519;51.890;8.970;2023-07-02T18:22:09;16.55;;;6.72;;
18780;SDS011;9519;51.890;8.970;2023-07-02T18:27:13;17.00;;;6.35;;
18780;SDS011;9519;51.890;8.970;2023-07-02T18:32:19;15.85;;;6.75;;
18780;SDS011;9519;51.890;8.970;2023-07-02T18:37:22;15.02;;;5.32;;
18780;SDS011;9519;51.890;8.970;2023-07-02T18:42:26;13.13;;;5.95;;
18780;SDS011;9519;51.890;8.970;2023-07-02T18:47:29;13.38;;;5.80;;
18780;SDS011;9519;51.890;8.970;2023-07-02T18:52:32;12.82;;;5.25;;
18780;SDS011;9519;51.890;8.970;2023-07-02T18:57:34;16.75;;;5.63;;
18780;SDS011;9519;51.890;8.970;2023-07-02T19:02:38;15.52;;;5.50;;
18780;SDS011;9519;51.890;8.970;2023-07-02T19:07:41;14.52;;;5.80;;
18780;SDS011;9519;51.890;8.970;2023-07-02T19:12:45;14.80;;;5.20;;
18780;SDS011;9519;51.890;8.970;2023-07-02T19:17:48;13.48;;;5.20;;
18780;SDS011;9519;51.890;8.970;2023-07-02T19:22:51;11.40;;;5.00;;
18780;SDS011;9519;51.890;8.970;2023-07-02T19:27:54;10.35;;;4.72;;
18780;SDS011;9519;51.890;8.970;2023-07-02T19:32:58;14.65;;;5.28;;
18780;SDS011;9519;51.890;8.970;2023-07-02T19:38:00;10.45;;;5.30;;
18780;SDS011;9519;51.890;8.970;2023-07-02T19:43:03;10.60;;;4.40;;
18780;SDS011;9519;51.890;8.970;2023-07-02T19:48:06;11.10;;;5.07;;
18780;SDS011;9519;51.890;8.970;2023-07-02T19:53:09;13.55;;;4.68;;
18780;SDS011;9519;51.890;8.970;2023-07-02T19:58:14;12.45;;;4.70;;
18780;SDS011;9519;51.890;8.970;2023-07-02T20:03:17;11.25;;;4.88;;
18780;SDS011;9519;51.890;8.970;2023-07-02T20:08:19;10.73;;;4.60;;
18780;SDS011;9519;51.890;8.970;2023-07-02T20:13:21;11.23;;;5.10;;
18780;SDS011;9519;51.890;8.970;2023-07-02T20:18:25;12.63;;;4.45;;
18780;SDS011;9519;51.890;8.970;2023-07-02T20:23:27;10.40;;;4.65;;
18780;SDS011;9519;51.890;8.970;2023-07-02T20:28:29;14.15;;;4.90;;
18780;SDS011;9519;51.890;8.970;2023-07-02T20:33:33;10.45;;;4.72;;
18780;SDS011;9519;51.890;8.970;2023-07-02T20:38:35;10.18;;;4.70;;
18780;SDS011;9519;51.890;8.970;2023-07-02T20:43:37;10.85;;;4.43;;
18780;SDS011;9519;51.890;8.970;2023-07-02T20:48:44;12.07;;;4.97;;
18780;SDS011;9519;51.890;8.970;2023-07-02T20:53:46;8.98;;;4.28;;
18780;SDS011;9519;51.890;8.970;2023-07-02T20:58:49;11.90;;;4.70;;
18780;SDS011;9519;51.890;8.970;2023-07-02T21:03:53;13.23;;;4.65;;
18780;SDS011;9519;51.890;8.970;2023-07-02T21:08:56;13.50;;;5.45;;
18780;SDS011;9519;51.890;8.970;2023-07-02T21:13:58;10.43;;;4.85;;
18780;SDS011;9519;51.890;8.970;2023-07-02T21:19:02;10.75;;;4.88;;
18780;SDS011;9519;51.890;8.970;2023-07-02T21:24:05;8.32;;;4.07;;
18780;SDS011;9519;51.890;8.970;2023-07-02T21:29:07;11.43;;;4.60;;
18780;SDS011;9519;51.890;8.970;2023-07-02T21:34:13;12.30;;;5.32;;
18780;SDS011;9519;51.890;8.970;2023-07-02T21:39:15;10.32;;;4.47;;
18780;SDS011;9519;51.890;8.970;2023-07-02T21:44:17;9.95;;;4.03;;
18780;SDS011;9519;51.890;8.970;2023-07-02T21:49:21;12.88;;;4.85;;
18780;SDS011;9519;51.890;8.970;2023-07-02T21:54:23;12.93;;;5.22;;
18780;SDS011;9519;51.890;8.970;2023-07-02T21:59:26;12.90;;;5.13;;
18780;SDS011;9519;51.890;8.970;2023-07-02T22:04:29;11.05;;;4.93;;
18780;SDS011;9519;51.890;8.970;2023-07-02T22:09:32;12.55;;;5.38;;
18780;SDS011;9519;51.890;8.970;2023-07-02T22:14:34;9.63;;;5.07;;
18780;SDS011;9519;51.890;8.970;2023-07-02T22:19:38;11.55;;;5.10;;
18780;SDS011;9519;51.890;8.970;2023-07-02T22:24:40;12.25;;;5.00;;
18780;SDS011;9519;51.890;8.970;2023-07-02T22:29:42;15.05;;;5.15;;
18780;SDS011;9519;51.890;8.970;2023-07-02T22:34:48;9.23;;;5.05;;
18780;SDS011;9519;51.890;8.970;2023-07-02T22:39:50;13.63;;;5.00;;
18780;SDS011;9519;51.890;8.970;2023-07-02T22:44:52;11.25;;;4.63;;
18780;SDS011;9519;51.890;8.970;2023-07-02T22:49:55;11.82;;;4.80;;
18780;SDS011;9519;51.890;8.970;2023-07-02T22:54:57;12.80;;;5.15;;
18780;SDS011;9519;51.890;8.970;2023-07-02T23:00:00;10.65;;;5.00;;
18780;SDS011;9519;51.890;8.970;2023-07-02T23:05:14;13.90;;;5.40;;
18780;SDS011;9519;51.890;8.970;2023-07-02T23:10:18;12.68;;;5.07;;
18780;SDS011;9519;51.890;8.970;2023-07-02T23:15:20;11.32;;;4.68;;
18780;SDS011;9519;51.890;8.970;2023-07-02T23:20:24;12.10;;;4.90;;
18780;SDS011;9519;51.890;8.970;2023-07-02T23:25:26;11.90;;;5.28;;
18780;SDS011;9519;51.890;8.970;2023-07-02T23:30:31;12.25;;;5.47;;
18780;SDS011;9519;51.890;8.970;2023-07-02T23:35:37;10.60;;;4.80;;
18780;SDS011;9519;51.890;8.970;2023-07-02T23:40:39;12.63;;;5.22;;
18780;SDS011;9519;51.890;8.970;2023-07-02T23:45:41;14.43;;;5.22;;
18780;SDS011;9519;51.890;8.970;2023-07-02T23:50:46;10.98;;;5.20;;
18780;SDS011;9519;51.890;8.970;2023-07-02T23:55:48;10.90;;;4.78;;
